createdAt,value
2023-03-27T00:00:30.502Z,57.52
2023-03-27T00:03:01.685Z,57.18
2023-03-27T00:05:15.105Z,57.11
2023-03-27T00:07:27.928Z,57.38
2023-03-27T00:09:41.803Z,57.15
2023-03-27T00:11:57.019Z,56.95
2023-03-27T00:14:10.348Z,56.98
2023-03-27T00:16:23.695Z,56.57
2023-03-27T00:18:37.501Z,56.42
2023-03-27T00:20:50.017Z,56.40
2023-03-27T00:23:03.628Z,56.51
2023-03-27T00:25:18.154Z,56.34
2023-03-27T00:27:30.966Z,56.18
2023-03-27T00:29:44.017Z,55.89
2023-03-27T00:31:56.745Z,55.75
2023-03-27T00:34:09.369Z,56.06
2023-03-27T00:36:22.195Z,56.04
2023-03-27T00:38:35.263Z,55.59
2023-03-27T00:40:48.981Z,55.74
2023-03-27T00:43:02.121Z,55.93
2023-03-27T00:45:22.860Z,55.81
2023-03-27T00:47:40.429Z,55.63
2023-03-27T00:49:54.971Z,55.60
2023-03-27T00:52:09.681Z,55.78
2023-03-27T00:54:27.478Z,55.86
2023-03-27T00:56:42.006Z,55.95
2023-03-27T00:58:57.271Z,56.15
2023-03-27T01:01:10.982Z,55.80
2023-03-27T01:03:27.810Z,55.67
2023-03-27T01:05:41.559Z,55.73
2023-03-27T01:08:00.333Z,55.80
2023-03-27T01:10:17.475Z,56.12
2023-03-27T01:12:44.177Z,56.33
2023-03-27T01:15:08.654Z,56.15
2023-03-27T01:17:37.506Z,56.57
2023-03-27T01:20:16.909Z,56.51
2023-03-27T01:23:01.910Z,56.66
2023-03-27T01:25:54.574Z,56.94
2023-03-27T01:28:22.963Z,57.13
2023-03-27T01:30:39.410Z,57.20
2023-03-27T01:33:20.682Z,57.24
2023-03-27T01:35:57.533Z,57.43
2023-03-27T01:38:47.324Z,57.51
2023-03-27T01:41:08.131Z,57.47
2023-03-27T01:43:28.576Z,57.58
2023-03-27T01:45:48.643Z,57.39
2023-03-27T01:48:08.145Z,57.45
2023-03-27T01:50:27.188Z,57.60
2023-03-27T01:52:45.509Z,57.83
2023-03-27T01:55:06.012Z,57.88
2023-03-27T01:57:26.557Z,58.12
2023-03-27T01:59:42.787Z,58.43
2023-03-27T02:02:02.202Z,58.52
2023-03-27T02:04:20.736Z,58.66
2023-03-27T02:06:39.271Z,58.79
2023-03-27T02:08:58.785Z,59.00
2023-03-27T02:11:12.609Z,59.25
2023-03-27T02:13:31.740Z,59.47
2023-03-27T02:15:46.967Z,59.86
2023-03-27T02:18:06.231Z,59.90
2023-03-27T02:20:21.563Z,60.15
2023-03-27T02:22:38.377Z,60.23
2023-03-27T02:24:52.822Z,60.18
2023-03-27T02:27:13.857Z,60.50
2023-03-27T02:29:42.331Z,60.75
2023-03-27T02:32:07.709Z,60.88
2023-03-27T02:34:41.631Z,61.14
2023-03-27T02:37:03.101Z,61.10
2023-03-27T02:39:37.184Z,61.39
2023-03-27T02:41:56.626Z,61.44
2023-03-27T02:44:31.116Z,61.74
2023-03-27T02:46:55.102Z,61.63
2023-03-27T02:49:12.255Z,61.80
2023-03-27T02:51:30.365Z,62.08
2023-03-27T02:53:47.189Z,62.13
2023-03-27T02:56:02.679Z,62.44
2023-03-27T02:58:21.974Z,62.67
2023-03-27T03:00:52.999Z,63.03
2023-03-27T03:03:19.584Z,62.77
2023-03-27T03:05:40.744Z,62.67
2023-03-27T03:07:55.345Z,62.68
2023-03-27T03:10:12.571Z,62.83
2023-03-27T03:12:25.915Z,62.86
2023-03-27T03:14:45.130Z,62.78
2023-03-27T03:16:58.126Z,62.95
2023-03-27T03:19:10.841Z,63.27
2023-03-27T03:21:23.585Z,63.23
2023-03-27T03:23:36.450Z,63.56
2023-03-27T03:25:51.412Z,63.48
2023-03-27T03:28:09.136Z,63.45
2023-03-27T03:30:22.409Z,63.64
2023-03-27T03:32:42.263Z,63.81
2023-03-27T03:34:55.141Z,63.86
2023-03-27T03:37:11.627Z,63.99
2023-03-27T03:39:26.161Z,64.26
2023-03-27T03:41:38.908Z,64.44
2023-03-27T03:43:52.768Z,64.57
2023-03-27T03:46:06.657Z,64.46
2023-03-27T03:48:21.288Z,64.77
2023-03-27T03:50:34.707Z,64.70
2023-03-27T03:52:48.243Z,64.90
2023-03-27T03:55:01.521Z,65.44
2023-03-27T03:57:15.384Z,65.44
2023-03-27T03:59:31.293Z,65.63
2023-03-27T04:02:19.276Z,66.15
2023-03-27T04:04:33.346Z,66.02
2023-03-27T04:06:54.089Z,66.08
2023-03-27T04:09:06.891Z,66.22
2023-03-27T04:11:41.388Z,66.76
2023-03-27T04:14:09.571Z,66.74
2023-03-27T04:16:26.878Z,67.11
2023-03-27T04:18:42.197Z,66.99
2023-03-27T04:21:01.427Z,67.04
2023-03-27T04:23:14.939Z,66.97
2023-03-27T04:25:29.412Z,67.15
2023-03-27T04:27:42.295Z,67.05
2023-03-27T04:30:05.167Z,67.45
2023-03-27T04:32:47.699Z,67.38
2023-03-27T04:35:38.798Z,67.73
2023-03-27T04:38:03.860Z,67.93
2023-03-27T04:40:26.414Z,68.18
2023-03-27T04:42:43.460Z,68.15
2023-03-27T04:44:56.829Z,68.54
2023-03-27T04:47:10.865Z,68.36
2023-03-27T04:49:26.151Z,68.35
2023-03-27T04:51:46.417Z,68.48
2023-03-27T04:54:00.905Z,68.60
2023-03-27T04:56:15.831Z,68.60
2023-03-27T04:58:29.608Z,68.75
2023-03-27T05:00:44.899Z,68.78
2023-03-27T05:03:29.381Z,69.10
2023-03-27T05:05:50.641Z,69.20
2023-03-27T05:08:04.423Z,69.11
2023-03-27T05:10:21.814Z,69.07
2023-03-27T05:12:35.996Z,69.39
2023-03-27T05:14:49.606Z,69.22
2023-03-27T05:17:19.252Z,69.42
2023-03-27T05:19:32.756Z,69.56
2023-03-27T05:21:47.567Z,69.31
2023-03-27T05:24:01.227Z,69.60
2023-03-27T05:26:13.953Z,69.82
2023-03-27T05:28:41.192Z,69.65
2023-03-27T05:30:55.522Z,69.77
2023-03-27T05:33:09.488Z,69.61
2023-03-27T05:35:25.298Z,69.68
2023-03-27T05:37:39.724Z,69.63
2023-03-27T05:40:22.151Z,69.51
2023-03-27T05:42:35.315Z,69.35
2023-03-27T05:44:48.930Z,69.39
2023-03-27T05:47:02.334Z,69.68
2023-03-27T05:49:16.531Z,69.40
2023-03-27T05:51:30.994Z,69.46
2023-03-27T05:53:44.319Z,69.83
2023-03-27T05:56:03.824Z,69.72
2023-03-27T05:58:26.113Z,69.70
2023-03-27T06:00:46.977Z,69.75
2023-03-27T06:03:05.849Z,70.13
2023-03-27T06:05:36.312Z,69.91
2023-03-27T06:07:49.956Z,69.93
2023-03-27T06:10:04.116Z,69.84
2023-03-27T06:12:28.914Z,69.83
2023-03-27T06:14:48.603Z,69.75
2023-03-27T06:17:17.789Z,69.77
2023-03-27T06:19:37.194Z,69.87
2023-03-27T06:21:50.700Z,69.91
2023-03-27T06:24:03.735Z,69.92
2023-03-27T06:26:16.978Z,70.13
2023-03-27T06:28:30.908Z,69.95
2023-03-27T06:30:44.091Z,70.29
2023-03-27T06:33:16.354Z,70.22
2023-03-27T06:35:32.109Z,70.27
2023-03-27T06:38:00.185Z,70.44
2023-03-27T06:40:21.704Z,70.49
2023-03-27T06:42:36.958Z,70.63
2023-03-27T06:45:09.088Z,70.38
2023-03-27T06:47:51.654Z,70.47
2023-03-27T06:50:37.170Z,70.43
2023-03-27T06:52:51.195Z,70.43
2023-03-27T06:55:25.616Z,70.50
2023-03-27T06:57:39.336Z,70.57
2023-03-27T06:59:52.514Z,70.56
2023-03-27T07:02:08.646Z,70.67
2023-03-27T07:04:38.380Z,70.80
2023-03-27T07:07:06.182Z,70.76
2023-03-27T07:09:22.049Z,70.98
2023-03-27T07:11:44.588Z,71.10
2023-03-27T07:13:58.076Z,71.28
2023-03-27T07:16:15.030Z,71.26
2023-03-27T07:18:28.284Z,71.20
2023-03-27T07:20:41.994Z,71.14
2023-03-27T07:22:58.463Z,71.10
2023-03-27T07:25:33.777Z,71.01
2023-03-27T07:27:47.809Z,71.31
2023-03-27T07:30:02.599Z,71.27
2023-03-27T07:32:29.670Z,71.32
2023-03-27T07:34:51.018Z,71.24
2023-03-27T07:37:25.920Z,71.26
2023-03-27T07:39:59.172Z,71.43
2023-03-27T07:42:12.299Z,71.46
2023-03-27T07:44:54.018Z,71.50
2023-03-27T07:47:11.411Z,71.73
2023-03-27T07:49:39.374Z,71.70
2023-03-27T07:51:58.559Z,71.82
2023-03-27T07:54:14.414Z,71.69
2023-03-27T07:56:32.951Z,71.92
2023-03-27T07:59:02.802Z,71.91
2023-03-27T08:01:15.759Z,71.85
2023-03-27T08:03:29.303Z,71.88
2023-03-27T08:05:42.685Z,72.10
2023-03-27T08:07:57.025Z,71.78
2023-03-27T08:10:26.104Z,72.01
2023-03-27T08:12:43.961Z,72.07
2023-03-27T08:14:56.928Z,71.91
2023-03-27T08:17:16.256Z,71.87
2023-03-27T08:19:29.534Z,71.76
2023-03-27T08:21:45.008Z,71.87
2023-03-27T08:23:59.717Z,71.87
2023-03-27T08:26:33.416Z,71.83
2023-03-27T08:28:48.912Z,71.90
2023-03-27T08:31:02.811Z,71.77
2023-03-27T08:33:20.431Z,71.88
2023-03-27T08:35:33.568Z,71.92
2023-03-27T08:37:47.720Z,71.97
2023-03-27T08:40:29.807Z,71.94
2023-03-27T08:43:13.787Z,72.05
2023-03-27T08:45:31.892Z,72.26
2023-03-27T08:47:53.684Z,72.12
2023-03-27T08:50:21.296Z,72.39
2023-03-27T08:52:39.003Z,72.31
2023-03-27T08:54:59.373Z,72.36
2023-03-27T08:57:24.858Z,72.33
2023-03-27T08:59:40.735Z,72.61
2023-03-27T09:02:06.738Z,72.41
2023-03-27T09:04:31.176Z,72.58
2023-03-27T09:06:51.667Z,72.50
2023-03-27T09:09:10.050Z,72.55
2023-03-27T09:11:35.817Z,72.45
2023-03-27T09:13:52.828Z,72.52
2023-03-27T09:16:14.593Z,72.63
2023-03-27T09:18:34.529Z,72.64
2023-03-27T09:20:52.573Z,72.66
2023-03-27T09:23:14.544Z,72.65
2023-03-27T09:25:48.799Z,72.47
2023-03-27T09:28:33.443Z,72.58
2023-03-27T09:30:48.868Z,72.57
2023-03-27T09:33:14.077Z,72.49
2023-03-27T09:35:29.359Z,72.67
2023-03-27T09:37:43.917Z,72.77
2023-03-27T09:39:58.331Z,72.85
2023-03-27T09:42:20.098Z,72.98
2023-03-27T09:44:36.195Z,73.13
2023-03-27T09:46:53.611Z,73.19
2023-03-27T09:49:15.303Z,73.40
2023-03-27T09:51:46.113Z,73.51
2023-03-27T09:54:05.548Z,73.60
2023-03-27T09:56:21.681Z,73.67
2023-03-27T09:58:45.071Z,73.71
2023-03-27T10:01:20.925Z,73.85
2023-03-27T10:03:43.531Z,73.92
2023-03-27T10:06:12.707Z,73.93
2023-03-27T10:08:43.710Z,74.07
2023-03-27T10:11:09.346Z,74.02
2023-03-27T10:13:30.325Z,73.82
2023-03-27T10:15:44.942Z,74.05
2023-03-27T10:18:07.865Z,73.94
2023-03-27T10:20:23.696Z,73.94
2023-03-27T10:22:41.823Z,73.89
2023-03-27T10:24:56.580Z,73.71
2023-03-27T10:27:25.991Z,73.86
2023-03-27T10:30:28.508Z,74.21
2023-03-27T10:32:53.075Z,74.05
2023-03-27T10:35:36.769Z,73.95
2023-03-27T10:38:03.279Z,74.06
2023-03-27T10:40:23.312Z,74.04
2023-03-27T10:42:39.619Z,73.86
2023-03-27T10:44:55.649Z,74.07
2023-03-27T10:47:18.989Z,74.17
2023-03-27T10:49:39.713Z,74.08
2023-03-27T10:51:55.937Z,74.22
2023-03-27T10:54:29.445Z,74.08
2023-03-27T10:56:55.620Z,74.15
2023-03-27T10:59:21.573Z,74.03
2023-03-27T11:01:46.347Z,74.15
2023-03-27T11:04:04.729Z,74.21
2023-03-27T11:06:24.676Z,74.12
2023-03-27T11:08:46.389Z,74.09
2023-03-27T11:11:11.729Z,73.93
2023-03-27T11:13:32.088Z,73.93
2023-03-27T11:15:55.268Z,73.85
2023-03-27T11:18:31.020Z,73.72
2023-03-27T11:20:51.785Z,73.70
2023-03-27T11:23:33.845Z,73.63
2023-03-27T11:26:10.603Z,73.54
2023-03-27T11:28:29.293Z,73.54
2023-03-27T11:30:47.046Z,73.73
2023-03-27T11:33:12.432Z,73.73
2023-03-27T11:35:29.163Z,73.60
2023-03-27T11:38:09.181Z,73.65
2023-03-27T11:40:31.594Z,73.46
2023-03-27T11:42:48.726Z,73.49
2023-03-27T11:45:05.696Z,73.55
2023-03-27T11:47:45.946Z,73.59
2023-03-27T11:53:10.087Z,73.52
2023-03-27T11:56:10.009Z,73.61
2023-03-27T11:58:34.470Z,73.55
2023-03-27T12:00:56.495Z,73.75
2023-03-27T12:03:42.468Z,73.78
2023-03-27T12:06:15.195Z,73.78
2023-03-27T12:08:43.083Z,73.80
2023-03-27T12:11:00.414Z,73.75
2023-03-27T12:14:01.529Z,73.70
2023-03-27T12:16:56.227Z,73.79
2023-03-27T12:19:36.234Z,73.73
2023-03-27T12:22:23.906Z,73.80
2023-03-27T12:25:00.251Z,74.04
2023-03-27T12:28:04.136Z,73.94
2023-03-27T12:30:36.474Z,73.85
2023-03-27T12:33:05.700Z,74.14
2023-03-27T12:35:22.893Z,74.23
2023-03-27T12:37:45.567Z,74.27
2023-03-27T12:40:00.961Z,74.30
2023-03-27T12:42:55.410Z,74.44
2023-03-27T12:45:19.048Z,74.44
2023-03-27T12:47:36.206Z,74.40
2023-03-27T12:50:03.618Z,74.48
2023-03-27T12:52:22.249Z,74.53
2023-03-27T12:55:05.410Z,74.55
2023-03-27T12:57:53.119Z,74.68
2023-03-27T13:00:29.903Z,74.68
2023-03-27T13:03:25.802Z,74.79
2023-03-27T13:06:07.828Z,74.78
2023-03-27T13:08:54.626Z,74.80
2023-03-27T13:11:32.518Z,74.95
2023-03-27T13:14:20.890Z,75.10
2023-03-27T13:16:46.540Z,74.92
2023-03-27T13:19:28.445Z,74.99
2023-03-27T13:22:12.586Z,75.06
2023-03-27T13:24:41.108Z,74.93
2023-03-27T13:27:14.466Z,74.95
2023-03-27T13:29:28.602Z,74.96
2023-03-27T13:32:08.507Z,75.00
2023-03-27T13:34:42.342Z,74.98
2023-03-27T13:37:36.864Z,75.15
2023-03-27T13:40:08.820Z,75.13
2023-03-27T13:42:28.137Z,75.27
2023-03-27T13:44:54.716Z,75.16
2023-03-27T13:47:35.932Z,75.30
2023-03-27T13:50:14.138Z,75.20
2023-03-27T13:52:47.155Z,75.27
2023-03-27T13:55:30.814Z,75.14
2023-03-27T13:58:22.397Z,75.20
2023-03-27T14:01:08.706Z,75.10
2023-03-27T14:03:56.582Z,75.12
2023-03-27T14:06:40.846Z,74.95
2023-03-27T14:09:02.125Z,75.13
2023-03-27T14:11:53.871Z,75.17
2023-03-27T14:15:10.617Z,75.44
2023-03-27T14:17:41.627Z,75.33
2023-03-27T14:20:26.024Z,75.39
2023-03-27T14:22:44.313Z,75.51
2023-03-27T14:25:03.706Z,75.50
2023-03-27T14:27:29.716Z,75.52
2023-03-27T14:29:45.652Z,75.45
2023-03-27T14:32:04.631Z,75.65
2023-03-27T14:34:25.962Z,75.73
2023-03-27T14:36:54.623Z,75.68
2023-03-27T14:39:21.257Z,75.63
2023-03-27T14:41:38.203Z,75.75
2023-03-27T14:43:54.415Z,75.78
2023-03-27T14:46:10.313Z,75.82
2023-03-27T14:48:27.832Z,75.90
2023-03-27T14:50:41.872Z,76.03
2023-03-27T14:53:01.718Z,75.97
2023-03-27T14:55:27.505Z,75.88
2023-03-27T14:58:11.248Z,76.00
2023-03-27T15:00:29.148Z,75.98
2023-03-27T15:02:43.806Z,76.16
2023-03-27T15:04:57.703Z,76.12
2023-03-27T15:07:21.034Z,76.10
2023-03-27T15:09:47.364Z,76.15
2023-03-27T15:12:31.539Z,76.17
2023-03-27T15:14:44.725Z,76.13
2023-03-27T15:17:02.718Z,76.24
2023-03-27T15:19:24.220Z,76.23
2023-03-27T15:21:51.979Z,76.31
2023-03-27T15:24:11.381Z,76.37
2023-03-27T15:26:28.527Z,76.54
2023-03-27T15:28:45.488Z,76.56
2023-03-27T15:31:01.005Z,76.52
2023-03-27T15:33:21.547Z,76.82
2023-03-27T15:35:40.039Z,77.07
2023-03-27T15:37:53.952Z,77.99
2023-03-27T15:40:27.781Z,79.34
2023-03-27T15:42:56.072Z,79.84
2023-03-27T15:45:12.708Z,79.33
2023-03-27T15:47:33.537Z,78.55
2023-03-27T15:49:47.230Z,77.74
2023-03-27T15:52:02.347Z,76.80
2023-03-27T15:54:32.328Z,75.69
2023-03-27T15:56:47.322Z,74.58
2023-03-27T15:59:04.934Z,73.66
2023-03-27T16:01:21.289Z,73.40
2023-03-27T16:03:37.185Z,72.70
2023-03-27T16:05:50.693Z,72.63
2023-03-27T16:08:03.500Z,72.34
2023-03-27T16:10:17.880Z,72.15
2023-03-27T16:12:35.511Z,72.35
2023-03-27T16:15:00.368Z,72.73
2023-03-27T16:17:35.390Z,73.00
2023-03-27T16:19:58.695Z,72.97
2023-03-27T16:22:11.449Z,72.98
2023-03-27T16:24:24.442Z,72.56
2023-03-27T16:26:37.795Z,72.64
2023-03-27T16:28:51.150Z,72.33
2023-03-27T16:31:12.655Z,72.18
2023-03-27T16:33:28.541Z,71.57
2023-03-27T16:35:41.702Z,71.12
2023-03-27T16:37:55.013Z,71.00
2023-03-27T16:40:08.000Z,70.75
2023-03-27T16:42:26.083Z,70.45
2023-03-27T16:44:40.185Z,70.14
2023-03-27T16:46:53.357Z,70.57
2023-03-27T16:49:06.399Z,70.49
2023-03-27T16:51:19.121Z,70.17
2023-03-27T16:53:32.046Z,69.96
2023-03-27T16:55:46.057Z,69.89
2023-03-27T16:57:59.239Z,69.59
2023-03-27T17:00:14.896Z,69.44
2023-03-27T17:02:28.061Z,68.84
2023-03-27T17:04:41.054Z,68.42
2023-03-27T17:06:59.271Z,68.53
2023-03-27T17:09:13.818Z,68.40
2023-03-27T17:11:26.713Z,68.24
2023-03-27T17:13:42.894Z,67.86
2023-03-27T17:15:57.606Z,67.60
2023-03-27T17:18:10.832Z,67.11
2023-03-27T17:20:24.027Z,66.72
2023-03-27T17:22:37.286Z,66.46
2023-03-27T17:24:56.746Z,66.18
2023-03-27T17:27:09.844Z,66.12
2023-03-27T17:29:22.906Z,65.53
2023-03-27T17:31:35.862Z,65.31
2023-03-27T17:33:48.483Z,64.89
2023-03-27T17:36:01.502Z,64.50
2023-03-27T17:38:14.811Z,64.21
2023-03-27T17:40:30.336Z,63.66
2023-03-27T17:42:43.315Z,63.05
2023-03-27T17:45:03.693Z,62.73
2023-03-27T17:47:16.630Z,62.55
2023-03-27T17:49:30.761Z,62.19
2023-03-27T17:51:43.476Z,61.38
2023-03-27T17:53:56.329Z,61.24
2023-03-27T17:56:10.332Z,61.12
2023-03-27T17:58:24.015Z,60.66
2023-03-27T18:00:36.915Z,59.94
2023-03-27T18:02:50.283Z,59.03
2023-03-27T18:05:03.010Z,57.69
2023-03-27T18:07:15.587Z,56.58
2023-03-27T18:09:29.218Z,55.81
2023-03-27T18:11:43.170Z,55.18
2023-03-27T18:13:57.700Z,54.98
2023-03-27T18:16:13.294Z,53.95
2023-03-27T18:18:27.492Z,52.42
2023-03-27T18:20:42.466Z,51.59
2023-03-27T18:22:56.098Z,51.50
2023-03-27T18:25:11.056Z,49.10
2023-03-27T18:27:24.197Z,50.18
2023-03-27T18:29:38.819Z,50.77
2023-03-27T18:31:53.041Z,50.46
2023-03-27T18:34:09.236Z,50.18
2023-03-27T18:36:22.816Z,49.74
2023-03-27T18:38:36.120Z,48.89
2023-03-27T18:40:50.730Z,48.73
2023-03-27T18:43:05.597Z,47.65
2023-03-27T18:45:19.649Z,47.28
2023-03-27T18:47:33.232Z,46.87
2023-03-27T18:49:47.307Z,46.88
2023-03-27T18:51:59.988Z,47.27
2023-03-27T18:54:14.400Z,47.59
2023-03-27T18:56:27.577Z,46.32
2023-03-27T18:58:40.242Z,47.45
2023-03-27T19:00:53.320Z,45.05
2023-03-27T19:03:06.520Z,45.00
2023-03-27T19:05:19.766Z,45.70
2023-03-27T19:07:32.721Z,43.25
2023-03-27T19:09:45.507Z,43.58
2023-03-27T19:11:58.837Z,43.80
2023-03-27T19:14:30.368Z,42.63
2023-03-27T19:17:05.039Z,43.83
2023-03-27T19:19:25.484Z,44.00
2023-03-27T19:21:39.371Z,43.70
2023-03-27T19:24:04.178Z,43.09
2023-03-27T19:26:27.396Z,39.91
2023-03-27T19:28:41.444Z,40.09
2023-03-27T19:30:55.754Z,41.14
2023-03-27T19:33:08.479Z,39.29
2023-03-27T19:35:22.359Z,39.65
2023-03-27T19:37:35.383Z,40.14
2023-03-27T19:39:48.259Z,40.34
2023-03-27T19:42:01.353Z,40.10
2023-03-27T19:44:17.058Z,40.95
2023-03-27T19:46:30.208Z,41.27
2023-03-27T19:48:44.976Z,41.36
2023-03-27T19:51:19.003Z,39.14
2023-03-27T19:53:37.699Z,39.98
2023-03-27T19:55:52.206Z,40.52
2023-03-27T19:58:06.117Z,40.12
2023-03-27T20:00:22.437Z,37.68
2023-03-27T20:02:37.038Z,38.73
2023-03-27T20:04:51.754Z,38.76
2023-03-27T20:07:08.128Z,39.25
2023-03-27T20:09:21.867Z,38.53
2023-03-27T20:11:35.421Z,38.01
2023-03-27T20:13:56.121Z,38.04
2023-03-27T20:16:15.986Z,38.68
2023-03-27T20:18:33.804Z,38.38
2023-03-27T20:20:47.497Z,38.57
2023-03-27T20:23:02.645Z,38.02
2023-03-27T20:25:15.862Z,37.48
2023-03-27T20:27:32.785Z,37.07
2023-03-27T20:29:45.554Z,37.34
2023-03-27T20:31:59.635Z,37.58
2023-03-27T20:34:12.828Z,37.67
2023-03-27T20:36:25.832Z,37.17
2023-03-27T20:38:39.433Z,37.33
2023-03-27T20:40:54.734Z,37.44
2023-03-27T20:43:10.718Z,38.04
2023-03-27T20:45:28.153Z,37.86
2023-03-27T20:47:43.967Z,37.55
2023-03-27T20:49:59.856Z,36.99
2023-03-27T20:52:13.317Z,36.80
2023-03-27T20:54:26.641Z,36.75
2023-03-27T20:56:39.336Z,36.62
2023-03-27T20:58:54.269Z,36.67
2023-03-27T21:01:10.022Z,36.83
2023-03-27T21:03:22.768Z,36.66
2023-03-27T21:05:39.816Z,36.54
2023-03-27T21:07:53.643Z,37.71
2023-03-27T21:10:07.703Z,38.41
2023-03-27T21:12:21.328Z,37.65
2023-03-27T21:14:34.883Z,37.46
2023-03-27T21:16:47.510Z,38.39
2023-03-27T21:19:00.281Z,37.09
2023-03-27T21:21:16.212Z,37.23
2023-03-27T21:23:29.024Z,38.24
2023-03-27T21:25:41.990Z,38.60
2023-03-27T21:27:58.539Z,38.83
2023-03-27T21:30:15.138Z,38.84
2023-03-27T21:32:30.430Z,38.91
2023-03-27T21:34:44.085Z,38.26
2023-03-27T21:36:59.173Z,37.97
2023-03-27T21:39:12.057Z,37.82
2023-03-27T21:41:25.740Z,37.48
2023-03-27T21:43:40.612Z,37.93
2023-03-27T21:45:55.082Z,37.88
2023-03-27T21:48:11.456Z,38.17
2023-03-27T21:50:25.690Z,38.70
2023-03-27T21:52:41.614Z,38.60
2023-03-27T21:55:02.880Z,38.52
2023-03-27T21:57:18.952Z,38.11
2023-03-27T21:59:33.443Z,38.56
2023-03-27T22:01:47.356Z,39.21
2023-03-27T22:04:03.257Z,39.57
2023-03-27T22:06:20.169Z,39.26
2023-03-27T22:08:33.188Z,39.13
2023-03-27T22:10:45.796Z,39.63
2023-03-27T22:13:01.761Z,38.79
2023-03-27T22:15:17.473Z,37.78
2023-03-27T22:17:33.177Z,37.91
2023-03-27T22:19:46.742Z,38.28
2023-03-27T22:22:02.420Z,39.11
2023-03-27T22:24:16.991Z,38.46
2023-03-27T22:26:32.920Z,38.95
2023-03-27T22:28:46.716Z,38.14
2023-03-27T22:30:59.891Z,37.82
2023-03-27T22:33:12.518Z,38.15
2023-03-27T22:35:25.184Z,38.31
2023-03-27T22:37:41.885Z,38.28
2023-03-27T22:39:55.932Z,38.08
2023-03-27T22:42:11.194Z,37.63
2023-03-27T22:44:23.931Z,37.63
2023-03-27T22:46:36.819Z,37.21
2023-03-27T22:48:50.202Z,37.42
2023-03-27T22:51:03.494Z,37.79
2023-03-27T22:53:17.013Z,37.76
2023-03-27T22:55:30.341Z,37.90
2023-03-27T22:57:43.576Z,37.67
2023-03-27T22:59:57.310Z,38.28
2023-03-27T23:02:10.415Z,38.00
2023-03-27T23:04:23.792Z,37.44
2023-03-27T23:06:39.517Z,37.54
2023-03-27T23:08:52.885Z,37.83
2023-03-27T23:11:09.976Z,37.25
2023-03-27T23:13:23.611Z,37.75
2023-03-27T23:15:37.882Z,38.35
2023-03-27T23:17:51.306Z,38.30
2023-03-27T23:20:06.636Z,37.78
2023-03-27T23:22:20.011Z,38.59
2023-03-27T23:24:36.089Z,38.80
2023-03-27T23:26:48.903Z,38.57
2023-03-27T23:29:01.778Z,39.05
2023-03-27T23:31:17.431Z,39.36
2023-03-27T23:33:33.403Z,39.41
2023-03-27T23:35:46.100Z,38.61
2023-03-27T23:37:59.727Z,38.10
2023-03-27T23:40:14.906Z,38.28
2023-03-27T23:42:28.208Z,38.90
2023-03-27T23:44:42.389Z,39.04
2023-03-27T23:46:56.022Z,38.23
2023-03-27T23:49:09.009Z,37.94
2023-03-27T23:51:22.853Z,36.92
2023-03-27T23:53:37.578Z,36.11
2023-03-27T23:55:51.498Z,36.24
2023-03-27T23:58:08.573Z,36.03
